Disclaimer

    

CYCD

SPECI CYCD 171909Z 20004KT 170V270 10SM FEW007 SCT013 07/05 A3047 RMK SF2SF2 SLP319=

METAR CYCD 171900Z 26004KT 220V280 5SM BR BKN008 BKN014 07/05 A3047 RMK SF5SC2 SLP319=

METAR CYCD 171800Z 25006KT 5SM BR BKN007 OVC012 05/04 A3044 RMK SF7SC1 SLP311=

METAR CYCD 171700Z 25006KT 5SM BR OVC009 05/04 A3041 RMK SF8 CIG RAG SLP301=

TAF CYCD 171738Z 1718/1805 26005KT 2SM BR BKN008 OVC020 TEMPO 1718/1720 6SM BR SCT008 BKN020
FM172000 29005KT P6SM SCT020 TEMPO 1720/1805 P6SM -SHRA FEW008 BKN020 RMK NXT FCST BY 180000Z=

CYVR

METAR CYVR 171900Z 14003KT 20SM SCT023 BKN031 08/06 A3045 RMK SC4SC2 CU ASOCTD SLP314=

METAR CYVR 171800Z 09002KT 15SM FEW011 SCT014 OVC020 07/06 A3044 RMK SF1SC3SC4 SLP309=

METAR CYVR 171700Z 06004KT 15SM BKN011 OVC017 07/05 A3040 RMK SC5SC3 SLP297=

TAF CYVR 171738Z 1718/1824 06005KT P6SM BKN012 OVC030 TEMPO 1718/1723 SCT012 BKN030 BECMG 1718/1720 29010KT
FM172300 29010KT P6SM FEW008 SCT015 TEMPO 1723/1803 SCT008 BKN015
FM180300 29010KT P6SM FEW003 SCT008 TEMPO 1803/1811 3SM BR SCT003 BKN008 BECMG 1808/1810 08005KT
FM181100 08005KT P6SM FEW006 BKN012 TEMPO 1811/1818 SCT012
FM181800 VRB03KT P6SM SCT020 TEMPO 1818/1821 BKN020 BECMG 1818/1820 28008KT
FM182100 28008KT P6SM FEW020 RMK NXT FCST BY 172100Z=

CYXX

METAR CYXX 171900Z 00000KT 10SM FEW003 BKN015 OVC018 06/05 A3045 RMK SF1SC6SC2 SF TR SLP315=

METAR CYXX 171800Z 03004KT 10SM FEW004 BKN016 OVC020 06/05 A3043 RMK SF1SC5SC3 SF TR SLP307=

METAR CYXX 171700Z 01003KT 10SM FEW002 FEW005 BKN018 OVC021 06/05 A3040 RMK SF1SF1SC4SC4 SF TR SF TR SLP297=

TAF CYXX 171738Z 1718/1818 VRB03KT P6SM FEW004 BKN020 TEMPO 1718/1805 BKN025
FM180500 VRB03KT P6SM SCT008 BKN020 TEMPO 1805/1809 BKN008 OVC020
FM180900 VRB03KT P6SM SCT005 OVC012 TEMPO 1809/1815 2SM -DZ BR BKN005 OVC012
FM181500 VRB03KT P6SM SCT006 BKN015 TEMPO 1815/1818 FEW006 SCT015 RMK NXT FCST BY 180000Z=

Supplemental information

Lower mainland ATIS: 1-877-517-2847

CZBB (Boundary Bay) current winds

Upper winds (Vancouver)

Data fromValid at300060009000
17120017180031193125-033033-07
17120018000030203127-023238-05
17120018120099003308+003416-06

NOTAMs

On October 10, 2019, NAV CANADA changed to the ICAO NOTAM format. They are now available only through Collaborative Flight Planning Services (CFPS) (plan.navcanada.ca). I'm working to update this site to pull in the relevant NOTAMs in the new format.